Terminal Aerodrome Forecast
Issued by NWS

Home | Current Version | Previous Version | Text Only | Print | Product List | Glossary On
Versions: 1 2 3 4 5 6 7 8 9 10 11 12 13 14 15 16 17 18 19 20 21 22 23 24
000
FTUS46 KPQR 010554 AAA
TAFONP
TAF AMD
KONP 010554Z 0106/0206 18005KT P6SM SCT002 BKN015
      TEMPO 0106/0109 2SM BR BKN002
     FM010900 17005KT 2SM BR BKN002 OVC015
     FM011500 22005KT 5SM BR OVC015
     FM012000 22008KT P6SM SCT025 OVC100
     FM020100 22007KT P6SM -RA OVC025=

USA.gov is the U.S. government's official web portal to all federal, state and local government web resources and services.